Capt. Ted — WDD6210 — position and weather

sailwx.info

Track history (hours):
 
Tides and Currents Weather Stations Pressure Air Temp Water Temp Dewpoint Dewpoint Depression Visibility Wind Speed Wind Dir Waves Ship Positions

Capt. Ted

Owner: Salisbury Towing Corporation, Havre de Grace, MD. More information available from US FCC via Universal Licensing System and Coast Guard Vessel Documentation Center.

Last reported at 2014-Nov-26 00:32 UTC. Time now 2014-Nov-27 06:37 UTC.
Position N 38°51' W 076°25'.

Length 32 m; draft 2.8 m.

Type: Tug. MMSI: 367169710.

Date/timePositionNaut miles runAvg speedWind from/ knotsBaromVisibWave heightAir tempDewpointWater temp
2014-Nov-26 00:32N 38°51' W 076°25'6 6.1
2014-Nov-25 23:33N 38°56' W 076°24'12 6.2
2014-Nov-25 21:33N 39°08' W 076°20'5 0.5
2014-Nov-25 11:30N 39°11' W 076°25'6 6.7
2014-Nov-25 10:33N 39°14' W 076°33'3 2.8
2014-Nov-25 09:34N 39°15' W 076°36'4 4.2
2014-Nov-25 08:34N 39°13' W 076°31'7 6.4
2014-Nov-25 07:30N 39°12' W 076°23'4 0.2
2014-Nov-24 14:34N 39°11' W 076°28'7 6.8
2014-Nov-24 13:33N 39°15' W 076°34'1 0.8
2014-Nov-24 12:33N 39°16' W 076°35'0 0.0
2014-Nov-24 11:34N 39°16' W 076°35'0 0.0
2014-Nov-24 10:34N 39°16' W 076°35'0 0.0
2014-Nov-24 09:34N 39°16' W 076°35'0 0.0
2014-Nov-24 08:33N 39°16' W 076°35'0 0.0
2014-Nov-24 07:34N 39°16' W 076°35'0 0.1
2014-Nov-24 06:34N 39°16' W 076°35'0 0.0
2014-Nov-24 05:34N 39°16' W 076°35'0 0.0
2014-Nov-24 04:34N 39°15' W 076°35'0 0.0
2014-Nov-24 03:34N 39°15' W 076°35'1 1.1
2014-Nov-24 02:34N 39°15' W 076°36'3 3.4
2014-Nov-24 01:34N 39°13' W 076°32'6 6.0
2014-Nov-24 00:33N 39°11' W 076°25'9 0.8
2014-Nov-23 12:27N 39°03' W 076°21'55 1.9
2014-Nov-22 07:09N 38°07' W 076°16'49 5.4
2014-Nov-21 22:06N 38°56' W 076°24'4 5.0
2014-Nov-21 21:18N 38°60' W 076°23'10 4.8
2014-Nov-21 19:08N 39°10' W 076°25'3 5.2
2014-Nov-21 18:34N 39°11' W 076°29'5 5.3
2014-Nov-21 17:33N 39°15' W 076°34'1 1.2
2014-Nov-21 16:34N 39°15' W 076°35'0 0.0
2014-Nov-21 15:34N 39°15' W 076°35'2 2.1
2014-Nov-21 14:34N 39°14' W 076°34'0 0.0
2014-Nov-21 13:33N 39°14' W 076°34'0 0.0
2014-Nov-21 12:34N 39°14' W 076°34'2 2.1
2014-Nov-21 11:34N 39°15' W 076°36'1 0.8
2014-Nov-21 10:33N 39°15' W 076°36'0 0.0
2014-Nov-21 09:33N 39°15' W 076°36'0 0.0
2014-Nov-21 08:34N 39°15' W 076°36'1 1.2
2014-Nov-21 07:34N 39°16' W 076°35'1 1.2
2014-Nov-21 06:33N 39°15' W 076°36'0 0.0
2014-Nov-21 05:34N 39°15' W 076°36'0 0.0
2014-Nov-21 04:34N 39°15' W 076°36'0 0.0
2014-Nov-21 03:33N 39°15' W 076°36'0 0.0
2014-Nov-21 02:33N 39°15' W 076°36'0 0.0
2014-Nov-21 01:34N 39°15' W 076°36'0 0.0
2014-Nov-21 00:34N 39°15' W 076°36'1 1.2
2014-Nov-20 23:34N 39°15' W 076°35'0 0.0
2014-Nov-20 22:34N 39°15' W 076°35'0 0.0
2014-Nov-20 21:33N 39°15' W 076°35'0 0.0
2014-Nov-20 20:34N 39°15' W 076°35'3 2.9
2014-Nov-20 19:33N 39°14' W 076°32'5 5.2
2014-Nov-20 18:34N 39°11' W 076°26'3 0.2
2014-Nov-20 01:05N 39°10' W 076°22'3 6.1
2014-Nov-20 00:34N 39°11' W 076°26'6 6.3
2014-Nov-19 23:33N 39°14' W 076°33'2 2.4
2014-Nov-19 22:33N 39°15' W 076°36'1 0.6
2014-Nov-19 21:34N 39°15' W 076°36'1 0.6
2014-Nov-19 20:34N 39°15' W 076°36'0 0.1
2014-Nov-19 19:34N 39°15' W 076°36'0 0.4
2014-Nov-19 18:34N 39°15' W 076°36'1 0.6
2014-Nov-19 17:33N 39°15' W 076°36'0 0.0
2014-Nov-19 16:34N 39°15' W 076°36'1 0.5
2014-Nov-19 15:34N 39°15' W 076°36'0 0.0
2014-Nov-19 14:34N 39°15' W 076°36'1 0.7
2014-Nov-19 13:33N 39°15' W 076°35'1 1.1
2014-Nov-19 12:34N 39°15' W 076°36'1 0.5
2014-Nov-19 11:34N 39°15' W 076°36'0 0.0
2014-Nov-19 10:34N 39°15' W 076°36'0 0.0
2014-Nov-19 09:33N 39°15' W 076°36'0 0.0
2014-Nov-19 08:33N 39°15' W 076°36'0 0.0
2014-Nov-19 07:33N 39°15' W 076°36'0 0.0
2014-Nov-19 06:34N 39°15' W 076°36'0 0.0
2014-Nov-19 05:33N 39°15' W 076°36'0 0.0
2014-Nov-19 04:34N 39°15' W 076°36'0 0.0
2014-Nov-19 03:34N 39°15' W 076°36'0 0.0
2014-Nov-19 02:34N 39°15' W 076°36'0 0.0
2014-Nov-19 01:34N 39°15' W 076°36'0 0.0
2014-Nov-19 00:34N 39°15' W 076°36'0 0.0
2014-Nov-18 23:33N 39°15' W 076°36'0 0.0
2014-Nov-18 22:33N 39°15' W 076°36'0 0.0
2014-Nov-18 21:34N 39°15' W 076°36'0 0.0
2014-Nov-18 20:34N 39°15' W 076°36'0 0.0
2014-Nov-18 19:34N 39°15' W 076°36'0 0.0
2014-Nov-18 18:34N 39°15' W 076°36'0 0.0
2014-Nov-18 17:33N 39°15' W 076°36'0 0.0
2014-Nov-18 16:34N 39°15' W 076°36'0 0.0
2014-Nov-18 15:34N 39°15' W 076°36'0 0.0
2014-Nov-18 14:34N 39°15' W 076°36'0 0.0
2014-Nov-18 13:33N 39°15' W 076°36'0 0.0
2014-Nov-18 12:33N 39°15' W 076°36'0 0.4
2014-Nov-18 11:34N 39°15' W 076°36'0 0.2
2014-Nov-18 10:34N 39°15' W 076°36'0 0.2
2014-Nov-18 09:33N 39°15' W 076°36'0 0.4
2014-Nov-18 08:33N 39°15' W 076°36'1 1.0
2014-Nov-18 07:34N 39°15' W 076°35'2 2.5
2014-Nov-18 06:34N 39°14' W 076°33'5 4.8
2014-Nov-18 05:34N 39°11' W 076°28'4 4.2
2014-Nov-18 04:33N 39°13' W 076°23'4 0.3
2014-Nov-17 16:30N 39°11' W 076°27'5 5.0
2014-Nov-17 15:33N 39°13' W 076°33'3 3.0
2014-Nov-17 14:33N 39°15' W 076°36'3 3.2
2014-Nov-17 13:34N 39°13' W 076°33'7 6.5
2014-Nov-17 12:34N 39°10' W 076°25'69 7.6
2014-Nov-17 03:32N 38°01' W 076°20'8 8.0
2014-Nov-17 02:33N 38°05' W 076°29'46 3.2
2014-Nov-16 12:03N 38°36' W 077°13'0 0.0
2014-Nov-16 09:17N 38°36' W 077°13'  
Track history (hours):
 
Tides and Currents Weather Stations Pressure Air Temp Water Temp Dewpoint Dewpoint Depression Visibility Wind Speed Wind Dir Waves Ship Positions

Capt. Ted

Owner: Salisbury Towing Corporation, Havre de Grace, MD. More information available from US FCC via Universal Licensing System and Coast Guard Vessel Documentation Center.

Last reported at 2014-Nov-26 00:32 UTC. Time now 2014-Nov-27 06:37 UTC.
Position N 38°51' W 076°25'.

Length 32 m; draft 2.8 m.

Type: Tug. MMSI: 367169710.

Date/timePositionNaut miles runAvg speedWind from/ knotsBaromVisibWave heightAir tempDewpointWater temp
2014-Nov-26 00:32N 38°51' W 076°25'6 6.1
2014-Nov-25 23:33N 38°56' W 076°24'12 6.2
2014-Nov-25 21:33N 39°08' W 076°20'5 0.5
2014-Nov-25 11:30N 39°11' W 076°25'6 6.7
2014-Nov-25 10:33N 39°14' W 076°33'3 2.8
2014-Nov-25 09:34N 39°15' W 076°36'4 4.2
2014-Nov-25 08:34N 39°13' W 076°31'7 6.4
2014-Nov-25 07:30N 39°12' W 076°23'4 0.2
2014-Nov-24 14:34N 39°11' W 076°28'7 6.8
2014-Nov-24 13:33N 39°15' W 076°34'1 0.8
2014-Nov-24 12:33N 39°16' W 076°35'0 0.0
2014-Nov-24 11:34N 39°16' W 076°35'0 0.0
2014-Nov-24 10:34N 39°16' W 076°35'0 0.0
2014-Nov-24 09:34N 39°16' W 076°35'0 0.0
2014-Nov-24 08:33N 39°16' W 076°35'0 0.0
2014-Nov-24 07:34N 39°16' W 076°35'0 0.1
2014-Nov-24 06:34N 39°16' W 076°35'0 0.0
2014-Nov-24 05:34N 39°16' W 076°35'0 0.0
2014-Nov-24 04:34N 39°15' W 076°35'0 0.0
2014-Nov-24 03:34N 39°15' W 076°35'1 1.1
2014-Nov-24 02:34N 39°15' W 076°36'3 3.4
2014-Nov-24 01:34N 39°13' W 076°32'6 6.0
2014-Nov-24 00:33N 39°11' W 076°25'9 0.8
2014-Nov-23 12:27N 39°03' W 076°21'55 1.9
2014-Nov-22 07:09N 38°07' W 076°16'49 5.4
2014-Nov-21 22:06N 38°56' W 076°24'4 5.0
2014-Nov-21 21:18N 38°60' W 076°23'10 4.8
2014-Nov-21 19:08N 39°10' W 076°25'3 5.2
2014-Nov-21 18:34N 39°11' W 076°29'5 5.3
2014-Nov-21 17:33N 39°15' W 076°34'1 1.2
2014-Nov-21 16:34N 39°15' W 076°35'0 0.0
2014-Nov-21 15:34N 39°15' W 076°35'2 2.1
2014-Nov-21 14:34N 39°14' W 076°34'0 0.0
2014-Nov-21 13:33N 39°14' W 076°34'0 0.0
2014-Nov-21 12:34N 39°14' W 076°34'2 2.1
2014-Nov-21 11:34N 39°15' W 076°36'1 0.8
2014-Nov-21 10:33N 39°15' W 076°36'0 0.0
2014-Nov-21 09:33N 39°15' W 076°36'0 0.0
2014-Nov-21 08:34N 39°15' W 076°36'1 1.2
2014-Nov-21 07:34N 39°16' W 076°35'1 1.2
2014-Nov-21 06:33N 39°15' W 076°36'0 0.0
2014-Nov-21 05:34N 39°15' W 076°36'0 0.0
2014-Nov-21 04:34N 39°15' W 076°36'0 0.0
2014-Nov-21 03:33N 39°15' W 076°36'0 0.0
2014-Nov-21 02:33N 39°15' W 076°36'0 0.0
2014-Nov-21 01:34N 39°15' W 076°36'0 0.0
2014-Nov-21 00:34N 39°15' W 076°36'1 1.2
2014-Nov-20 23:34N 39°15' W 076°35'0 0.0
2014-Nov-20 22:34N 39°15' W 076°35'0 0.0
2014-Nov-20 21:33N 39°15' W 076°35'0 0.0
2014-Nov-20 20:34N 39°15' W 076°35'3 2.9
2014-Nov-20 19:33N 39°14' W 076°32'5 5.2
2014-Nov-20 18:34N 39°11' W 076°26'3 0.2
2014-Nov-20 01:05N 39°10' W 076°22'3 6.1
2014-Nov-20 00:34N 39°11' W 076°26'6 6.3
2014-Nov-19 23:33N 39°14' W 076°33'2 2.4
2014-Nov-19 22:33N 39°15' W 076°36'1 0.6
2014-Nov-19 21:34N 39°15' W 076°36'1 0.6
2014-Nov-19 20:34N 39°15' W 076°36'0 0.1
2014-Nov-19 19:34N 39°15' W 076°36'0 0.4
2014-Nov-19 18:34N 39°15' W 076°36'1 0.6
2014-Nov-19 17:33N 39°15' W 076°36'0 0.0
2014-Nov-19 16:34N 39°15' W 076°36'1 0.5
2014-Nov-19 15:34N 39°15' W 076°36'0 0.0
2014-Nov-19 14:34N 39°15' W 076°36'1 0.7
2014-Nov-19 13:33N 39°15' W 076°35'1 1.1
2014-Nov-19 12:34N 39°15' W 076°36'1 0.5
2014-Nov-19 11:34N 39°15' W 076°36'0 0.0
2014-Nov-19 10:34N 39°15' W 076°36'0 0.0
2014-Nov-19 09:33N 39°15' W 076°36'0 0.0
2014-Nov-19 08:33N 39°15' W 076°36'0 0.0
2014-Nov-19 07:33N 39°15' W 076°36'0 0.0
2014-Nov-19 06:34N 39°15' W 076°36'0 0.0
2014-Nov-19 05:33N 39°15' W 076°36'0 0.0
2014-Nov-19 04:34N 39°15' W 076°36'0 0.0
2014-Nov-19 03:34N 39°15' W 076°36'0 0.0
2014-Nov-19 02:34N 39°15' W 076°36'0 0.0
2014-Nov-19 01:34N 39°15' W 076°36'0 0.0
2014-Nov-19 00:34N 39°15' W 076°36'0 0.0
2014-Nov-18 23:33N 39°15' W 076°36'0 0.0
2014-Nov-18 22:33N 39°15' W 076°36'0 0.0
2014-Nov-18 21:34N 39°15' W 076°36'0 0.0
2014-Nov-18 20:34N 39°15' W 076°36'0 0.0
2014-Nov-18 19:34N 39°15' W 076°36'0 0.0
2014-Nov-18 18:34N 39°15' W 076°36'0 0.0
2014-Nov-18 17:33N 39°15' W 076°36'0 0.0
2014-Nov-18 16:34N 39°15' W 076°36'0 0.0
2014-Nov-18 15:34N 39°15' W 076°36'0 0.0
2014-Nov-18 14:34N 39°15' W 076°36'0 0.0
2014-Nov-18 13:33N 39°15' W 076°36'0 0.0
2014-Nov-18 12:33N 39°15' W 076°36'0 0.4
2014-Nov-18 11:34N 39°15' W 076°36'0 0.2
2014-Nov-18 10:34N 39°15' W 076°36'0 0.2
2014-Nov-18 09:33N 39°15' W 076°36'0 0.4
2014-Nov-18 08:33N 39°15' W 076°36'1 1.0
2014-Nov-18 07:34N 39°15' W 076°35'2 2.5
2014-Nov-18 06:34N 39°14' W 076°33'5 4.8
2014-Nov-18 05:34N 39°11' W 076°28'4 4.2
2014-Nov-18 04:33N 39°13' W 076°23'4 0.3
2014-Nov-17 16:30N 39°11' W 076°27'5 5.0
2014-Nov-17 15:33N 39°13' W 076°33'3 3.0
2014-Nov-17 14:33N 39°15' W 076°36'3 3.2
2014-Nov-17 13:34N 39°13' W 076°33'7 6.5
2014-Nov-17 12:34N 39°10' W 076°25'69 7.6
2014-Nov-17 03:32N 38°01' W 076°20'8 8.0
2014-Nov-17 02:33N 38°05' W 076°29'46 3.2
2014-Nov-16 12:03N 38°36' W 077°13'0 0.0
2014-Nov-16 09:17N 38°36' W 077°13'  

Dump ship's entire track history